sensor_id;sensor_type;location;lat;lon;timestamp;pressure;altitude;pressure_sealevel;temperature;humidity
39309;BME280;26019;47.510;19.122;2022-11-12T00:08:05;101753.44;;;6.49;100.00
39309;BME280;26019;47.510;19.122;2022-11-12T00:18:09;101726.50;;;6.36;100.00
39309;BME280;26019;47.510;19.122;2022-11-12T00:28:10;101731.91;;;6.44;100.00
39309;BME280;26019;47.510;19.122;2022-11-12T00:38:12;101724.25;;;6.46;100.00
39309;BME280;26019;47.510;19.122;2022-11-12T00:48:15;101715.94;;;6.53;100.00
39309;BME280;26019;47.510;19.122;2022-11-12T00:58:23;101721.72;;;6.47;100.00
39309;BME280;26019;47.510;19.122;2022-11-12T01:08:28;101732.28;;;6.56;100.00
39309;BME280;26019;47.510;19.122;2022-11-12T01:18:30;101711.09;;;6.62;100.00
39309;BME280;26019;47.510;19.122;2022-11-12T01:28:32;101702.06;;;6.48;100.00
39309;BME280;26019;47.510;19.122;2022-11-12T01:38:35;101691.25;;;6.32;100.00
39309;BME280;26019;47.510;19.122;2022-11-12T01:49:07;101704.41;;;6.41;100.00
39309;BME280;26019;47.510;19.122;2022-11-12T01:59:30;101699.50;;;6.22;100.00
39309;BME280;26019;47.510;19.122;2022-11-12T02:09:35;101691.56;;;6.16;100.00
39309;BME280;26019;47.510;19.122;2022-11-12T02:19:38;101667.41;;;5.86;100.00
39309;BME280;26019;47.510;19.122;2022-11-12T02:29:39;101673.94;;;5.76;100.00
39309;BME280;26019;47.510;19.122;2022-11-12T02:39:47;101658.97;;;5.64;100.00
39309;BME280;26019;47.510;19.122;2022-11-12T02:49:52;101692.97;;;5.59;100.00
39309;BME280;26019;47.510;19.122;2022-11-12T02:59:57;101665.75;;;5.62;100.00
39309;BME280;26019;47.510;19.122;2022-11-12T03:10:01;101679.50;;;5.64;100.00
39309;BME280;26019;47.510;19.122;2022-11-12T03:20:02;101697.28;;;5.84;100.00
39309;BME280;26019;47.510;19.122;2022-11-12T03:30:05;101695.84;;;5.68;100.00
39309;BME280;26019;47.510;19.122;2022-11-12T03:40:09;101701.09;;;5.71;100.00
39309;BME280;26019;47.510;19.122;2022-11-12T03:50:38;101708.53;;;5.63;100.00
39309;BME280;26019;47.510;19.122;2022-11-12T04:00:40;101700.31;;;5.49;100.00
39309;BME280;26019;47.510;19.122;2022-11-12T04:10:45;101681.44;;;5.47;100.00
39309;BME280;26019;47.510;19.122;2022-11-12T04:20:48;101687.00;;;5.35;100.00
39309;BME280;26019;47.510;19.122;2022-11-12T04:31:09;101697.91;;;5.30;100.00
39309;BME280;26019;47.510;19.122;2022-11-12T04:41:10;101693.47;;;5.26;100.00
39309;BME280;26019;47.510;19.122;2022-11-12T04:51:36;101689.50;;;5.11;100.00
39309;BME280;26019;47.510;19.122;2022-11-12T05:01:58;101713.66;;;4.95;100.00
39309;BME280;26019;47.510;19.122;2022-11-12T05:12:02;101701.59;;;4.92;100.00
39309;BME280;26019;47.510;19.122;2022-11-12T05:22:08;101716.59;;;4.83;100.00
39309;BME280;26019;47.510;19.122;2022-11-12T05:32:30;101707.03;;;4.79;100.00
39309;BME280;26019;47.510;19.122;2022-11-12T05:42:31;101711.84;;;4.92;100.00
39309;BME280;26019;47.510;19.122;2022-11-12T05:52:33;101726.94;;;5.07;100.00
39309;BME280;26019;47.510;19.122;2022-11-12T06:02:35;101727.25;;;5.38;100.00
39309;BME280;26019;47.510;19.122;2022-11-12T06:12:36;101744.09;;;5.54;100.00
39309;BME280;26019;47.510;19.122;2022-11-12T06:22:38;101750.97;;;6.02;100.00
39309;BME280;26019;47.510;19.122;2022-11-12T06:32:40;101763.78;;;6.51;100.00
39309;BME280;26019;47.510;19.122;2022-11-12T06:42:42;101776.75;;;6.54;100.00
39309;BME280;26019;47.510;19.122;2022-11-12T06:52:45;101779.53;;;6.60;100.00
39309;BME280;26019;47.510;19.122;2022-11-12T07:02:47;101793.78;;;6.52;100.00
39309;BME280;26019;47.510;19.122;2022-11-12T07:12:48;101813.56;;;6.80;100.00
39309;BME280;26019;47.510;19.122;2022-11-12T07:22:59;101797.06;;;6.99;100.00
39309;BME280;26019;47.510;19.122;2022-11-12T07:33:02;101778.97;;;7.24;100.00
39309;BME280;26019;47.510;19.122;2022-11-12T07:43:10;101797.16;;;7.86;100.00
39309;BME280;26019;47.510;19.122;2022-11-12T07:53:13;101800.75;;;8.24;100.00
39309;BME280;26019;47.510;19.122;2022-11-12T08:03:15;101818.94;;;8.95;100.00
39309;BME280;26019;47.510;19.122;2022-11-12T08:13:16;101836.38;;;9.41;100.00
39309;BME280;26019;47.510;19.122;2022-11-12T08:23:18;101829.19;;;9.67;100.00
39309;BME280;26019;47.510;19.122;2022-11-12T08:33:20;101840.72;;;9.82;100.00
39309;BME280;26019;47.510;19.122;2022-11-12T08:43:21;101844.63;;;10.47;100.00
39309;BME280;26019;47.510;19.122;2022-11-12T08:53:23;101846.91;;;9.90;100.00
39309;BME280;26019;47.510;19.122;2022-11-12T09:03:31;101854.53;;;9.85;100.00
39309;BME280;26019;47.510;19.122;2022-11-12T09:13:42;101870.47;;;10.06;100.00
39309;BME280;26019;47.510;19.122;2022-11-12T09:23:44;101875.56;;;10.90;100.00
39309;BME280;26019;47.510;19.122;2022-11-12T09:33:47;101881.63;;;11.44;100.00
39309;BME280;26019;47.510;19.122;2022-11-12T09:43:51;101884.03;;;11.92;100.00
39309;BME280;26019;47.510;19.122;2022-11-12T09:53:55;101887.91;;;13.08;100.00
39309;BME280;26019;47.510;19.122;2022-11-12T10:24:53;101883.88;;;21.58;49.45
39309;BME280;26019;47.510;19.122;2022-11-12T10:34:57;101868.63;;;23.15;44.46
39309;BME280;26019;47.510;19.122;2022-11-12T10:45:19;101865.41;;;22.79;44.29
39309;BME280;26019;47.510;19.122;2022-11-12T10:55:33;101874.47;;;19.54;52.14
39309;BME280;26019;47.510;19.122;2022-11-12T11:16:20;101833.53;;;23.12;43.04
39309;BME280;26019;47.510;19.122;2022-11-12T11:57:14;101829.97;;;22.88;39.49
39309;BME280;26019;47.510;19.122;2022-11-12T12:07:46;101822.81;;;19.12;48.56
39309;BME280;26019;47.510;19.122;2022-11-12T12:18:03;101808.47;;;18.22;51.48
39309;BME280;26019;47.510;19.122;2022-11-12T12:38:51;101798.88;;;16.57;67.62
39309;BME280;26019;47.510;19.122;2022-11-12T12:49:02;101779.25;;;16.00;71.71
39309;BME280;26019;47.510;19.122;2022-11-12T12:59:19;101789.69;;;15.95;71.14
39309;BME280;26019;47.510;19.122;2022-11-12T13:09:23;101777.69;;;15.51;77.10
39309;BME280;26019;47.510;19.122;2022-11-12T13:29:40;101790.81;;;14.76;70.47
39309;BME280;26019;47.510;19.122;2022-11-12T13:39:42;101798.56;;;14.61;71.53
39309;BME280;26019;47.510;19.122;2022-11-12T13:49:46;101794.19;;;14.29;79.38
39309;BME280;26019;47.510;19.122;2022-11-12T13:59:49;101788.09;;;14.11;82.91
39309;BME280;26019;47.510;19.122;2022-11-12T14:10:33;101799.25;;;13.84;89.88
39309;BME280;26019;47.510;19.122;2022-11-12T14:20:38;101799.09;;;13.48;92.18
39309;BME280;26019;47.510;19.122;2022-11-12T14:30:44;101796.34;;;13.29;100.00
39309;BME280;26019;47.510;19.122;2022-11-12T14:41:24;101792.75;;;13.09;100.00
39309;BME280;26019;47.510;19.122;2022-11-12T14:51:30;101786.28;;;12.55;100.00
39309;BME280;26019;47.510;19.122;2022-11-12T15:01:37;101790.22;;;12.18;100.00
39309;BME280;26019;47.510;19.122;2022-11-12T15:12:03;101795.78;;;11.79;100.00
39309;BME280;26019;47.510;19.122;2022-11-12T15:22:05;101800.66;;;11.56;100.00
39309;BME280;26019;47.510;19.122;2022-11-12T15:42:32;101807.84;;;11.14;100.00
39309;BME280;26019;47.510;19.122;2022-11-12T15:52:34;101816.84;;;10.84;100.00
39309;BME280;26019;47.510;19.122;2022-11-12T16:02:36;101833.38;;;10.93;100.00
39309;BME280;26019;47.510;19.122;2022-11-12T16:12:37;101830.75;;;10.91;100.00
39309;BME280;26019;47.510;19.122;2022-11-12T16:22:39;101829.00;;;10.88;100.00
39309;BME280;26019;47.510;19.122;2022-11-12T16:32:47;101825.44;;;10.83;100.00
39309;BME280;26019;47.510;19.122;2022-11-12T16:42:49;101823.28;;;10.57;100.00
39309;BME280;26019;47.510;19.122;2022-11-12T16:52:57;101826.66;;;10.53;100.00
39309;BME280;26019;47.510;19.122;2022-11-12T17:02:59;101823.03;;;10.45;100.00
39309;BME280;26019;47.510;19.122;2022-11-12T17:13:00;101820.44;;;10.00;100.00
39309;BME280;26019;47.510;19.122;2022-11-12T17:23:02;101824.09;;;9.69;100.00
39309;BME280;26019;47.510;19.122;2022-11-12T17:33:04;101819.16;;;9.40;100.00
39309;BME280;26019;47.510;19.122;2022-11-12T17:43:05;101812.22;;;9.02;100.00
39309;BME280;26019;47.510;19.122;2022-11-12T17:53:18;101822.94;;;8.82;100.00
39309;BME280;26019;47.510;19.122;2022-11-12T18:03:26;101813.03;;;8.64;100.00
39309;BME280;26019;47.510;19.122;2022-11-12T18:13:29;101822.78;;;8.78;100.00
39309;BME280;26019;47.510;19.122;2022-11-12T18:23:38;101823.28;;;8.96;100.00
39309;BME280;26019;47.510;19.122;2022-11-12T18:33:49;101826.53;;;8.89;100.00
39309;BME280;26019;47.510;19.122;2022-11-12T18:43:54;101831.03;;;8.98;100.00
39309;BME280;26019;47.510;19.122;2022-11-12T18:53:56;101834.41;;;8.95;100.00
39309;BME280;26019;47.510;19.122;2022-11-12T19:03:59;101844.31;;;8.78;100.00
39309;BME280;26019;47.510;19.122;2022-11-12T19:14:02;101846.63;;;8.69;100.00
39309;BME280;26019;47.510;19.122;2022-11-12T19:24:05;101847.16;;;8.56;100.00
39309;BME280;26019;47.510;19.122;2022-11-12T19:34:09;101858.75;;;8.72;100.00
39309;BME280;26019;47.510;19.122;2022-11-12T19:44:11;101859.06;;;8.84;100.00
39309;BME280;26019;47.510;19.122;2022-11-12T19:54:15;101860.88;;;8.88;100.00
39309;BME280;26019;47.510;19.122;2022-11-12T20:04:18;101874.50;;;8.84;100.00
39309;BME280;26019;47.510;19.122;2022-11-12T20:14:30;101887.50;;;8.87;100.00
39309;BME280;26019;47.510;19.122;2022-11-12T20:24:35;101882.66;;;9.00;100.00
39309;BME280;26019;47.510;19.122;2022-11-12T20:34:37;101883.34;;;8.92;100.00
39309;BME280;26019;47.510;19.122;2022-11-12T20:44:40;101879.81;;;8.89;100.00
39309;BME280;26019;47.510;19.122;2022-11-12T20:54:43;101881.13;;;8.73;100.00
39309;BME280;26019;47.510;19.122;2022-11-12T21:04:44;101879.03;;;8.59;100.00
39309;BME280;26019;47.510;19.122;2022-11-12T21:14:46;101880.69;;;8.27;100.00
39309;BME280;26019;47.510;19.122;2022-11-12T21:24:53;101880.38;;;7.87;100.00
39309;BME280;26019;47.510;19.122;2022-11-12T21:35:01;101884.06;;;7.68;100.00
39309;BME280;26019;47.510;19.122;2022-11-12T21:45:04;101878.06;;;7.40;100.00
39309;BME280;26019;47.510;19.122;2022-11-12T21:55:06;101864.88;;;7.29;100.00
39309;BME280;26019;47.510;19.122;2022-11-12T22:05:08;101871.25;;;7.14;100.00
39309;BME280;26019;47.510;19.122;2022-11-12T22:15:10;101865.41;;;6.93;100.00
39309;BME280;26019;47.510;19.122;2022-11-12T22:25:12;101872.94;;;6.62;100.00
39309;BME280;26019;47.510;19.122;2022-11-12T22:35:13;101866.28;;;6.43;100.00
39309;BME280;26019;47.510;19.122;2022-11-12T22:45:16;101869.97;;;6.27;100.00
39309;BME280;26019;47.510;19.122;2022-11-12T22:55:19;101869.03;;;6.25;100.00
39309;BME280;26019;47.510;19.122;2022-11-12T23:05:28;101872.66;;;6.07;100.00
39309;BME280;26019;47.510;19.122;2022-11-12T23:15:42;101884.06;;;5.93;100.00
39309;BME280;26019;47.510;19.122;2022-11-12T23:25:48;101880.63;;;5.92;100.00
39309;BME280;26019;47.510;19.122;2022-11-12T23:35:53;101880.78;;;5.74;100.00
39309;BME280;26019;47.510;19.122;2022-11-12T23:45:54;101887.28;;;5.66;100.00
39309;BME280;26019;47.510;19.122;2022-11-12T23:55:57;101884.56;;;5.40;100.00
